createdAt,value
2022-08-28T00:01:57.464Z,12.37
2022-08-28T00:04:24.129Z,12.35
2022-08-28T00:06:50.602Z,12.36
2022-08-28T00:09:16.979Z,12.33
2022-08-28T00:11:43.662Z,12.33
2022-08-28T00:14:10.826Z,12.32
2022-08-28T00:16:37.926Z,12.28
2022-08-28T00:19:05.782Z,12.24
2022-08-28T00:21:33.211Z,12.23
2022-08-28T00:24:00.500Z,12.19
2022-08-28T00:26:45.745Z,12.18
2022-08-28T00:29:12.090Z,12.14
2022-08-28T00:31:39.495Z,12.15
2022-08-28T00:34:07.981Z,12.11
2022-08-28T00:36:35.003Z,12.11
2022-08-28T00:39:01.378Z,12.07
2022-08-28T00:41:31.214Z,12.04
2022-08-28T00:44:13.740Z,12.02
2022-08-28T00:46:43.535Z,12.00
2022-08-28T00:49:11.250Z,11.98
2022-08-28T00:51:57.909Z,11.96
2022-08-28T00:54:26.415Z,11.94
2022-08-28T00:56:54.488Z,11.95
2022-08-28T00:59:24.301Z,11.95
2022-08-28T01:01:56.285Z,11.93
2022-08-28T01:04:25.807Z,11.93
2022-08-28T01:06:54.846Z,11.93
2022-08-28T01:09:27.190Z,11.93
2022-08-28T01:11:57.396Z,11.92
2022-08-28T01:14:24.506Z,11.94
2022-08-28T01:16:55.459Z,11.93
2022-08-28T01:19:31.060Z,11.91
2022-08-28T01:22:02.995Z,11.89
2022-08-28T01:24:31.180Z,11.88
2022-08-28T01:26:57.547Z,11.85
2022-08-28T01:29:24.012Z,11.84
2022-08-28T01:31:50.430Z,11.82
2022-08-28T01:34:16.827Z,11.82
2022-08-28T01:36:43.262Z,11.80
2022-08-28T01:39:17.603Z,11.75
2022-08-28T01:41:47.350Z,11.70
2022-08-28T01:44:17.812Z,11.69
2022-08-28T01:46:44.708Z,11.66
2022-08-28T01:49:11.966Z,11.65
2022-08-28T01:51:39.366Z,11.62
2022-08-28T01:54:06.276Z,11.60
2022-08-28T01:56:33.554Z,11.60
2022-08-28T01:59:05.643Z,11.56
2022-08-28T02:01:33.393Z,11.52
2022-08-28T02:04:00.721Z,11.52
2022-08-28T02:06:27.166Z,11.50
2022-08-28T02:08:55.474Z,11.47
2022-08-28T02:11:24.192Z,11.45
2022-08-28T02:13:52.310Z,11.46
2022-08-28T02:16:21.122Z,11.46
2022-08-28T02:18:47.543Z,11.45
2022-08-28T02:21:14.002Z,11.44
2022-08-28T02:23:42.381Z,11.43
2022-08-28T02:26:10.236Z,11.39
2022-08-28T02:28:37.580Z,11.35
2022-08-28T02:31:06.364Z,11.32
2022-08-28T02:33:33.634Z,11.31
2022-08-28T02:36:00.103Z,11.28
2022-08-28T02:38:26.927Z,11.24
2022-08-28T02:40:53.300Z,11.19
2022-08-28T02:43:19.688Z,11.16
2022-08-28T02:45:46.135Z,11.13
2022-08-28T02:48:16.767Z,11.11
2022-08-28T02:50:43.794Z,11.07
2022-08-28T02:53:11.550Z,11.03
2022-08-28T02:55:38.607Z,11.01
2022-08-28T02:58:06.533Z,10.96
2022-08-28T03:00:33.021Z,10.93
2022-08-28T03:02:59.449Z,10.91
2022-08-28T03:05:26.795Z,10.90
2022-08-28T03:07:53.695Z,10.88
2022-08-28T03:10:21.562Z,10.87
2022-08-28T03:12:48.151Z,10.83
2022-08-28T03:15:14.633Z,10.79
2022-08-28T03:17:41.071Z,10.75
2022-08-28T03:20:10.252Z,10.73
2022-08-28T03:22:55.034Z,10.70
2022-08-28T03:25:22.315Z,10.68
2022-08-28T03:27:49.359Z,10.62
2022-08-28T03:30:15.962Z,10.60
2022-08-28T03:32:42.302Z,10.59
2022-08-28T03:35:08.987Z,10.53
2022-08-28T03:37:36.024Z,10.48
2022-08-28T03:40:02.891Z,10.47
2022-08-28T03:42:29.367Z,10.45
2022-08-28T03:44:55.759Z,10.42
2022-08-28T03:47:22.475Z,10.36
2022-08-28T03:49:55.486Z,10.30
2022-08-28T03:52:22.389Z,10.25
2022-08-28T03:54:48.738Z,10.22
2022-08-28T03:57:20.628Z,10.18
2022-08-28T03:59:51.707Z,10.16
2022-08-28T04:02:20.397Z,10.15
2022-08-28T04:04:48.494Z,10.10
2022-08-28T04:07:14.972Z,10.05
2022-08-28T04:09:41.415Z,10.04
2022-08-28T04:12:09.115Z,10.08
2022-08-28T04:14:36.343Z,10.12
2022-08-28T04:17:03.485Z,10.11
2022-08-28T04:19:30.227Z,10.06
2022-08-28T04:21:56.668Z,10.03
2022-08-28T04:24:23.022Z,9.99
2022-08-28T04:26:49.862Z,10.02
2022-08-28T04:29:16.474Z,10.02
2022-08-28T04:31:42.913Z,10.02
2022-08-28T04:34:10.868Z,10.03
2022-08-28T04:36:37.831Z,10.03
2022-08-28T04:39:08.384Z,10.03
2022-08-28T04:41:37.233Z,10.05
2022-08-28T04:44:04.186Z,10.10
2022-08-28T04:46:31.380Z,10.12
2022-08-28T04:48:58.083Z,10.13
2022-08-28T04:51:24.443Z,10.14
2022-08-28T04:53:50.790Z,10.15
2022-08-28T04:56:18.031Z,10.13
2022-08-28T04:58:45.409Z,10.13
2022-08-28T05:01:16.099Z,10.09
2022-08-28T05:03:42.654Z,10.14
2022-08-28T05:06:09.193Z,10.18
2022-08-28T05:08:35.664Z,10.21
2022-08-28T05:11:30.693Z,10.24
2022-08-28T05:14:05.679Z,10.26
2022-08-28T05:16:33.167Z,10.28
2022-08-28T05:19:03.439Z,10.31
2022-08-28T05:21:29.863Z,10.37
2022-08-28T05:23:58.093Z,10.41
2022-08-28T05:26:26.862Z,10.46
2022-08-28T05:28:55.839Z,10.54
2022-08-28T05:31:26.595Z,10.60
2022-08-28T05:33:53.650Z,10.67
2022-08-28T05:36:22.766Z,10.71
2022-08-28T05:38:51.189Z,10.79
2022-08-28T05:41:23.902Z,10.88
2022-08-28T05:43:50.313Z,10.95
2022-08-28T05:46:17.339Z,11.00
2022-08-28T05:48:45.218Z,11.07
2022-08-28T05:51:18.162Z,11.15
2022-08-28T05:53:47.229Z,11.22
2022-08-28T05:56:16.967Z,11.32
2022-08-28T05:58:43.362Z,11.44
2022-08-28T06:01:14.185Z,11.61
2022-08-28T06:03:42.270Z,11.73
2022-08-28T06:06:10.106Z,11.86
2022-08-28T06:08:36.790Z,12.00
2022-08-28T06:11:03.751Z,12.27
2022-08-28T06:13:31.164Z,12.54
2022-08-28T06:15:57.978Z,12.87
2022-08-28T06:18:25.067Z,13.24
2022-08-28T06:20:52.237Z,13.68
2022-08-28T06:23:24.235Z,14.17
2022-08-28T06:25:51.716Z,14.62
2022-08-28T06:28:23.850Z,15.01
2022-08-28T06:31:17.964Z,15.29
2022-08-28T06:33:38.538Z,15.70
2022-08-28T06:36:05.880Z,16.08
2022-08-28T06:38:32.427Z,16.47
2022-08-28T06:40:59.420Z,17.05
2022-08-28T06:43:28.766Z,17.39
2022-08-28T06:45:57.337Z,17.22
2022-08-28T06:48:27.304Z,17.86
2022-08-28T06:50:54.844Z,19.99
2022-08-28T06:53:25.078Z,21.82
2022-08-28T06:56:02.401Z,23.15
2022-08-28T06:58:29.258Z,23.89
2022-08-28T07:01:14.849Z,24.62
2022-08-28T07:03:42.721Z,24.57
2022-08-28T07:06:13.534Z,24.30
2022-08-28T07:08:41.100Z,24.59
2022-08-28T07:11:13.871Z,24.55
2022-08-28T07:13:41.779Z,25.03
2022-08-28T07:16:09.240Z,24.99
2022-08-28T07:18:36.961Z,25.32
2022-08-28T07:21:03.635Z,25.53
2022-08-28T07:23:33.093Z,25.60
2022-08-28T07:26:02.552Z,24.81
2022-08-28T07:28:29.498Z,25.08
2022-08-28T07:31:04.273Z,25.04
2022-08-28T07:33:31.691Z,25.30
2022-08-28T07:35:59.170Z,25.53
2022-08-28T07:38:26.727Z,25.67
2022-08-28T07:40:54.656Z,25.67
2022-08-28T07:43:40.073Z,25.84
2022-08-28T07:46:09.421Z,26.03
2022-08-28T07:48:36.925Z,25.95
2022-08-28T07:51:05.153Z,26.26
2022-08-28T07:53:36.219Z,26.23
2022-08-28T07:56:03.753Z,26.33
2022-08-28T07:58:30.426Z,26.35
2022-08-28T08:00:57.863Z,24.36
2022-08-28T08:03:25.508Z,22.86
2022-08-28T08:06:03.311Z,24.42
2022-08-28T08:08:31.770Z,24.22
2022-08-28T08:11:00.941Z,23.22
2022-08-28T08:13:27.606Z,24.75
2022-08-28T08:15:54.173Z,25.62
2022-08-28T08:18:20.850Z,25.08
2022-08-28T08:20:51.381Z,25.03
2022-08-28T08:23:17.890Z,23.29
2022-08-28T08:25:57.964Z,21.95
2022-08-28T08:28:24.462Z,23.07
2022-08-28T08:30:51.124Z,24.18
2022-08-28T08:33:17.526Z,25.09
2022-08-28T08:35:43.945Z,25.63
2022-08-28T08:38:10.647Z,26.26
2022-08-28T08:40:37.106Z,26.53
2022-08-28T08:43:03.601Z,26.69
2022-08-28T08:45:31.897Z,27.29
2022-08-28T08:48:00.737Z,27.84
2022-08-28T08:50:34.718Z,27.89
2022-08-28T08:53:28.270Z,27.59
2022-08-28T08:55:56.962Z,27.85
2022-08-28T08:58:32.726Z,27.56
2022-08-28T09:01:14.378Z,27.64
2022-08-28T09:03:57.006Z,27.06
2022-08-28T09:06:46.133Z,27.64
2022-08-28T09:09:56.314Z,27.57
2022-08-28T09:12:31.499Z,26.43
2022-08-28T09:15:16.629Z,23.80
2022-08-28T09:17:53.168Z,23.26
2022-08-28T09:20:32.881Z,24.91
2022-08-28T09:23:00.205Z,26.15
2022-08-28T09:25:44.962Z,26.19
2022-08-28T09:28:21.363Z,27.69
2022-08-28T09:30:58.696Z,27.81
2022-08-28T09:33:38.508Z,28.94
2022-08-28T09:36:28.595Z,27.67
2022-08-28T09:39:25.037Z,27.68
2022-08-28T09:42:40.725Z,28.44
2022-08-28T09:45:33.225Z,28.24
2022-08-28T09:48:00.590Z,26.76
2022-08-28T09:50:35.780Z,25.21
2022-08-28T09:53:14.110Z,24.24
2022-08-28T09:55:59.026Z,26.37
2022-08-28T09:58:42.622Z,27.65
2022-08-28T10:01:17.773Z,26.19
2022-08-28T10:03:54.866Z,26.50
2022-08-28T10:06:29.754Z,24.82
2022-08-28T10:09:11.566Z,23.62
2022-08-28T10:12:01.475Z,22.65
2022-08-28T10:14:39.653Z,22.08
2022-08-28T10:17:15.424Z,21.76
2022-08-28T10:20:00.359Z,25.15
2022-08-28T10:22:40.307Z,27.19
2022-08-28T10:25:30.743Z,24.97
2022-08-28T10:28:20.486Z,23.77
2022-08-28T10:31:11.816Z,23.78
2022-08-28T10:33:59.476Z,25.92
2022-08-28T10:36:34.840Z,28.65
2022-08-28T10:39:16.722Z,30.94
2022-08-28T10:41:58.087Z,30.39
2022-08-28T10:44:49.448Z,27.54
2022-08-28T10:47:19.516Z,29.52
2022-08-28T10:49:48.935Z,31.20
2022-08-28T10:52:21.951Z,31.02
2022-08-28T10:54:51.032Z,28.14
2022-08-28T10:57:39.216Z,25.67
2022-08-28T11:00:13.678Z,26.81
2022-08-28T11:02:48.429Z,29.91
2022-08-28T11:05:19.648Z,29.78
2022-08-28T11:07:53.067Z,27.47
2022-08-28T11:10:22.540Z,27.59
2022-08-28T11:12:52.389Z,27.69
2022-08-28T11:15:31.561Z,25.97
2022-08-28T11:18:15.658Z,25.74
2022-08-28T11:20:54.908Z,26.40
2022-08-28T11:23:30.003Z,27.59
2022-08-28T11:26:03.876Z,30.26
2022-08-28T11:28:36.366Z,28.26
2022-08-28T11:31:05.479Z,26.21
2022-08-28T11:33:37.815Z,28.31
2022-08-28T11:36:22.380Z,27.69
2022-08-28T11:38:51.773Z,27.31
2022-08-28T11:41:32.059Z,30.53
2022-08-28T11:44:13.514Z,30.88
2022-08-28T11:46:45.835Z,27.67
2022-08-28T11:49:27.286Z,25.44
2022-08-28T11:52:20.445Z,23.89
2022-08-28T11:55:13.340Z,22.83
2022-08-28T11:57:53.087Z,25.45
2022-08-28T12:00:42.595Z,29.44
2022-08-28T12:03:32.456Z,29.94
2022-08-28T12:06:00.457Z,26.70
2022-08-28T12:08:45.387Z,24.58
2022-08-28T12:11:40.612Z,23.88
2022-08-28T12:14:25.298Z,28.31
2022-08-28T12:17:04.868Z,30.59
2022-08-28T12:19:36.393Z,30.04
2022-08-28T12:22:13.806Z,27.26
2022-08-28T12:25:03.015Z,25.70
2022-08-28T12:27:30.630Z,27.61
2022-08-28T12:29:59.623Z,28.24
2022-08-28T12:32:53.295Z,25.69
2022-08-28T12:35:23.463Z,26.42
2022-08-28T12:37:52.722Z,25.67
2022-08-28T12:40:24.742Z,24.27
2022-08-28T12:42:55.220Z,26.24
2022-08-28T12:45:27.998Z,26.84
2022-08-28T12:47:58.087Z,25.47
2022-08-28T12:50:34.891Z,23.87
2022-08-28T12:53:05.582Z,23.78
2022-08-28T12:55:33.205Z,24.13
2022-08-28T12:58:00.219Z,24.35
2022-08-28T13:00:32.862Z,24.22
2022-08-28T13:03:00.478Z,23.64
2022-08-28T13:05:37.693Z,22.96
2022-08-28T13:08:11.117Z,23.35
2022-08-28T13:10:41.686Z,23.53
2022-08-28T13:13:18.247Z,23.63
2022-08-28T13:16:01.384Z,23.47
2022-08-28T13:18:49.590Z,23.64
2022-08-28T13:21:32.508Z,23.77
2022-08-28T13:24:21.966Z,23.57
2022-08-28T13:26:58.395Z,23.60
2022-08-28T13:29:24.824Z,23.64
2022-08-28T13:32:00.239Z,23.94
2022-08-28T13:34:29.821Z,23.34
2022-08-28T13:36:59.767Z,22.77
2022-08-28T13:39:31.603Z,22.07
2022-08-28T13:42:04.728Z,21.63
2022-08-28T13:44:40.776Z,21.80
2022-08-28T13:47:07.225Z,22.11
2022-08-28T13:49:35.377Z,22.10
2022-08-28T13:52:04.845Z,21.85
2022-08-28T13:54:31.978Z,21.65
2022-08-28T13:57:00.915Z,21.62
2022-08-28T13:59:27.893Z,21.96
2022-08-28T14:02:16.162Z,22.29
2022-08-28T14:04:43.418Z,22.43
2022-08-28T14:07:09.764Z,22.36
2022-08-28T14:09:38.203Z,22.23
2022-08-28T14:12:06.478Z,22.23
2022-08-28T14:14:32.811Z,22.52
2022-08-28T14:16:59.543Z,22.40
2022-08-28T14:19:25.987Z,22.29
2022-08-28T14:21:52.551Z,22.17
2022-08-28T14:24:19.504Z,21.95
2022-08-28T14:26:46.111Z,21.59
2022-08-28T14:29:14.153Z,21.29
2022-08-28T14:31:43.649Z,21.08
2022-08-28T14:34:16.217Z,21.08
2022-08-28T14:36:43.215Z,21.08
2022-08-28T14:39:11.982Z,21.13
2022-08-28T14:41:42.755Z,21.05
2022-08-28T14:44:09.180Z,21.01
2022-08-28T14:46:37.147Z,21.33
2022-08-28T14:49:07.029Z,21.64
2022-08-28T14:51:35.339Z,21.92
2022-08-28T14:54:02.461Z,21.87
2022-08-28T14:56:31.671Z,21.50
2022-08-28T14:59:00.421Z,21.17
2022-08-28T15:01:40.331Z,20.91
2022-08-28T15:04:11.694Z,20.79
2022-08-28T15:06:38.871Z,20.73
2022-08-28T15:09:05.513Z,20.70
2022-08-28T15:11:31.911Z,20.70
2022-08-28T15:13:58.520Z,20.74
2022-08-28T15:16:31.076Z,20.81
2022-08-28T15:18:59.113Z,20.80
2022-08-28T15:21:27.275Z,20.65
2022-08-28T15:23:56.355Z,20.64
2022-08-28T15:26:24.167Z,20.74
2022-08-28T15:28:51.146Z,20.99
2022-08-28T15:31:18.289Z,21.25
2022-08-28T15:33:45.550Z,21.43
2022-08-28T15:36:12.351Z,21.50
2022-08-28T15:38:58.385Z,21.44
2022-08-28T15:41:24.847Z,21.27
2022-08-28T15:43:56.291Z,20.86
2022-08-28T15:46:23.322Z,20.42
2022-08-28T15:48:50.159Z,20.06
2022-08-28T15:51:25.573Z,19.98
2022-08-28T15:53:52.508Z,19.99
2022-08-28T15:56:19.276Z,20.07
2022-08-28T15:58:45.639Z,20.16
2022-08-28T16:01:12.187Z,20.12
2022-08-28T16:03:39.029Z,19.95
2022-08-28T16:06:17.162Z,19.77
2022-08-28T16:08:44.655Z,19.80
2022-08-28T16:11:15.818Z,19.80
2022-08-28T16:13:42.186Z,19.76
2022-08-28T16:16:08.902Z,19.81
2022-08-28T16:18:35.293Z,19.89
2022-08-28T16:21:04.911Z,19.96
2022-08-28T16:23:32.493Z,20.03
2022-08-28T16:25:59.995Z,20.04
2022-08-28T16:28:27.208Z,20.04
2022-08-28T16:30:54.039Z,20.05
2022-08-28T16:33:22.128Z,20.01
2022-08-28T16:35:55.006Z,19.93
2022-08-28T16:38:22.588Z,19.95
2022-08-28T16:40:49.174Z,19.91
2022-08-28T16:43:16.344Z,19.90
2022-08-28T16:45:46.614Z,19.96
2022-08-28T16:48:14.991Z,19.97
2022-08-28T16:50:43.144Z,20.00
2022-08-28T16:53:10.265Z,20.03
2022-08-28T16:55:37.231Z,20.05
2022-08-28T16:58:04.237Z,20.05
2022-08-28T17:00:31.171Z,20.03
2022-08-28T17:02:57.666Z,19.95
2022-08-28T17:05:24.785Z,19.92
2022-08-28T17:07:52.040Z,19.94
2022-08-28T17:10:22.596Z,19.98
2022-08-28T17:12:49.163Z,20.00
2022-08-28T17:15:15.982Z,20.05
2022-08-28T17:17:42.868Z,20.00
2022-08-28T17:20:31.427Z,19.92
2022-08-28T17:22:58.127Z,19.81
2022-08-28T17:25:25.267Z,19.65
2022-08-28T17:27:52.054Z,19.48
2022-08-28T17:30:19.210Z,19.31
2022-08-28T17:32:46.470Z,19.16
2022-08-28T17:35:13.451Z,19.07
2022-08-28T17:37:40.690Z,18.98
2022-08-28T17:40:09.989Z,18.94
2022-08-28T17:42:36.563Z,18.87
2022-08-28T17:45:04.987Z,18.73
2022-08-28T17:47:31.754Z,18.62
2022-08-28T17:50:00.276Z,18.48
2022-08-28T17:52:27.455Z,18.33
2022-08-28T17:54:54.397Z,18.21
2022-08-28T17:57:20.760Z,18.12
2022-08-28T17:59:47.652Z,17.99
2022-08-28T18:02:16.547Z,17.95
2022-08-28T18:04:43.596Z,17.86
2022-08-28T18:07:10.119Z,17.74
2022-08-28T18:09:36.530Z,17.58
2022-08-28T18:12:03.460Z,17.45
2022-08-28T18:14:31.123Z,17.38
2022-08-28T18:16:57.583Z,17.26
2022-08-28T18:19:24.020Z,17.21
2022-08-28T18:21:50.742Z,17.15
2022-08-28T18:24:17.435Z,17.05
2022-08-28T18:26:44.340Z,17.03
2022-08-28T18:29:11.734Z,16.95
2022-08-28T18:31:38.455Z,16.88
2022-08-28T18:34:05.565Z,16.80
2022-08-28T18:36:31.992Z,16.67
2022-08-28T18:38:58.383Z,16.60
2022-08-28T18:41:43.026Z,16.57
2022-08-28T18:44:10.734Z,16.52
2022-08-28T18:46:37.117Z,16.45
2022-08-28T18:49:03.799Z,16.36
2022-08-28T18:51:32.282Z,16.25
2022-08-28T18:54:00.893Z,16.25
2022-08-28T18:56:31.966Z,16.21
2022-08-28T18:58:59.068Z,16.15
2022-08-28T19:01:25.536Z,16.09
2022-08-28T19:03:53.236Z,16.03
2022-08-28T19:06:19.702Z,15.96
2022-08-28T19:08:46.435Z,15.92
2022-08-28T19:11:14.460Z,15.87
2022-08-28T19:13:41.720Z,15.84
2022-08-28T19:16:08.758Z,15.81
2022-08-28T19:18:35.519Z,15.77
2022-08-28T19:21:12.208Z,15.72
2022-08-28T19:23:45.396Z,15.69
2022-08-28T19:26:22.230Z,15.67
2022-08-28T19:28:50.433Z,15.65
2022-08-28T19:31:17.459Z,15.59
2022-08-28T19:33:46.326Z,15.53
2022-08-28T19:36:13.527Z,15.49
2022-08-28T19:38:40.427Z,15.45
2022-08-28T19:41:09.027Z,15.43
2022-08-28T19:43:43.015Z,15.39
2022-08-28T19:46:19.892Z,15.38
2022-08-28T19:48:47.338Z,15.29
2022-08-28T19:51:17.404Z,15.27
2022-08-28T19:53:56.913Z,15.27
2022-08-28T19:56:27.041Z,15.22
2022-08-28T19:58:54.818Z,15.16
2022-08-28T20:01:21.318Z,15.14
2022-08-28T20:03:47.798Z,15.14
2022-08-28T20:06:14.390Z,15.11
2022-08-28T20:08:40.870Z,15.10
2022-08-28T20:11:07.700Z,15.06
2022-08-28T20:13:35.443Z,15.04
2022-08-28T20:16:05.303Z,14.99
2022-08-28T20:18:33.292Z,14.93
2022-08-28T20:20:59.870Z,14.93
2022-08-28T20:23:26.242Z,14.93
2022-08-28T20:25:52.652Z,14.87
2022-08-28T20:28:19.650Z,14.86
2022-08-28T20:30:46.797Z,14.80
2022-08-28T20:33:13.916Z,14.76
2022-08-28T20:35:40.398Z,14.83
2022-08-28T20:38:06.966Z,14.78
2022-08-28T20:40:33.876Z,14.75
2022-08-28T20:43:00.630Z,14.73
2022-08-28T20:45:27.127Z,14.70
2022-08-28T20:47:53.807Z,14.61
2022-08-28T20:50:20.208Z,14.57
2022-08-28T20:52:46.582Z,14.56
2022-08-28T20:55:14.754Z,14.49
2022-08-28T20:57:41.250Z,14.43
2022-08-28T21:00:10.018Z,14.40
2022-08-28T21:02:37.155Z,14.38
2022-08-28T21:05:04.316Z,14.37
2022-08-28T21:07:33.291Z,14.41
2022-08-28T21:10:07.110Z,14.41
2022-08-28T21:12:36.061Z,14.45
2022-08-28T21:15:03.249Z,14.45
2022-08-28T21:17:30.722Z,14.41
2022-08-28T21:20:00.138Z,14.39
2022-08-28T21:22:27.025Z,14.41
2022-08-28T21:24:53.797Z,14.40
2022-08-28T21:27:20.188Z,14.35
2022-08-28T21:29:47.734Z,14.32
2022-08-28T21:32:14.170Z,14.29
2022-08-28T21:34:40.580Z,14.29
2022-08-28T21:37:06.930Z,14.25
2022-08-28T21:39:33.613Z,14.21
2022-08-28T21:42:00.295Z,14.19
2022-08-28T21:44:26.640Z,14.18
2022-08-28T21:46:53.047Z,14.20
2022-08-28T21:49:19.567Z,14.19
2022-08-28T21:51:45.919Z,14.19
2022-08-28T21:54:12.423Z,14.21
2022-08-28T21:56:38.756Z,14.23
2022-08-28T21:59:05.250Z,14.29
2022-08-28T22:01:31.877Z,14.37
2022-08-28T22:03:58.850Z,14.51
2022-08-28T22:06:26.426Z,14.56
2022-08-28T22:08:54.359Z,14.56
2022-08-28T22:11:24.841Z,14.58
2022-08-28T22:13:52.469Z,14.54
2022-08-28T22:16:19.712Z,14.47
2022-08-28T22:18:46.266Z,14.38
2022-08-28T22:21:34.831Z,14.30
2022-08-28T22:24:01.747Z,14.21
2022-08-28T22:26:28.123Z,14.10
2022-08-28T22:28:55.816Z,13.99
2022-08-28T22:31:22.257Z,13.86
2022-08-28T22:33:48.827Z,13.76
2022-08-28T22:36:15.611Z,13.64
2022-08-28T22:38:42.193Z,13.55
2022-08-28T22:41:16.010Z,13.47
2022-08-28T22:43:42.515Z,13.36
2022-08-28T22:46:09.282Z,13.27
2022-08-28T22:48:36.008Z,13.23
2022-08-28T22:51:06.341Z,13.17
2022-08-28T22:53:34.022Z,13.10
2022-08-28T22:56:00.666Z,13.03
2022-08-28T22:58:31.923Z,12.93
2022-08-28T23:01:01.726Z,12.86
2022-08-28T23:03:28.404Z,12.82
2022-08-28T23:05:54.904Z,12.76
2022-08-28T23:08:21.440Z,12.70
2022-08-28T23:10:59.037Z,12.66
2022-08-28T23:13:25.891Z,12.65
2022-08-28T23:15:52.272Z,12.60
2022-08-28T23:18:18.615Z,12.53
2022-08-28T23:20:45.035Z,12.47
2022-08-28T23:23:11.844Z,12.43
2022-08-28T23:25:38.274Z,12.40
2022-08-28T23:28:06.609Z,12.36
2022-08-28T23:30:33.446Z,12.31
2022-08-28T23:32:59.840Z,12.25
2022-08-28T23:35:26.227Z,12.19
2022-08-28T23:37:52.663Z,12.14
2022-08-28T23:40:22.931Z,12.10
2022-08-28T23:42:49.489Z,12.04
2022-08-28T23:45:17.242Z,11.98
2022-08-28T23:47:44.443Z,11.88
2022-08-28T23:50:20.826Z,11.77
2022-08-28T23:52:47.860Z,11.72
2022-08-28T23:55:16.222Z,11.66
2022-08-28T23:57:43.042Z,11.63
